sensor_id;sensor_type;location;lat;lon;timestamp;P1;durP1;ratioP1;P2;durP2;ratioP2
57105;SDS011;62662;56.788;23.942;2022-10-24T00:01:12;9.63;;;6.53;;
57105;SDS011;62662;56.788;23.942;2022-10-24T00:03:40;8.30;;;6.40;;
57105;SDS011;62662;56.788;23.942;2022-10-24T00:06:08;10.25;;;6.65;;
57105;SDS011;62662;56.788;23.942;2022-10-24T00:08:37;10.82;;;5.55;;
57105;SDS011;62662;56.788;23.942;2022-10-24T00:11:08;7.03;;;5.53;;
57105;SDS011;62662;56.788;23.942;2022-10-24T00:13:40;9.02;;;5.00;;
57105;SDS011;62662;56.788;23.942;2022-10-24T00:16:08;11.73;;;5.43;;
57105;SDS011;62662;56.788;23.942;2022-10-24T00:18:35;8.70;;;4.90;;
57105;SDS011;62662;56.788;23.942;2022-10-24T00:21:03;7.75;;;5.60;;
57105;SDS011;62662;56.788;23.942;2022-10-24T00:23:30;18.05;;;6.05;;
57105;SDS011;62662;56.788;23.942;2022-10-24T00:25:57;7.97;;;5.43;;
57105;SDS011;62662;56.788;23.942;2022-10-24T00:28:27;8.32;;;5.97;;
57105;SDS011;62662;56.788;23.942;2022-10-24T00:30:56;7.90;;;5.45;;
57105;SDS011;62662;56.788;23.942;2022-10-24T00:33:23;9.77;;;5.60;;
57105;SDS011;62662;56.788;23.942;2022-10-24T00:35:50;7.13;;;5.38;;
57105;SDS011;62662;56.788;23.942;2022-10-24T00:38:18;8.50;;;5.55;;
57105;SDS011;62662;56.788;23.942;2022-10-24T00:40:45;7.68;;;5.38;;
57105;SDS011;62662;56.788;23.942;2022-10-24T00:43:16;7.85;;;5.47;;
57105;SDS011;62662;56.788;23.942;2022-10-24T00:45:47;7.00;;;5.38;;
57105;SDS011;62662;56.788;23.942;2022-10-24T00:50:55;9.57;;;5.90;;
57105;SDS011;62662;56.788;23.942;2022-10-24T00:53:24;16.48;;;5.75;;
57105;SDS011;62662;56.788;23.942;2022-10-24T00:55:53;10.48;;;6.38;;
57105;SDS011;62662;56.788;23.942;2022-10-24T00:58:24;12.57;;;6.10;;
57105;SDS011;62662;56.788;23.942;2022-10-24T01:00:53;8.82;;;5.82;;
57105;SDS011;62662;56.788;23.942;2022-10-24T01:03:21;10.52;;;5.80;;
57105;SDS011;62662;56.788;23.942;2022-10-24T01:08:29;8.60;;;5.80;;
57105;SDS011;62662;56.788;23.942;2022-10-24T01:19:53;12.02;;;7.13;;
57105;SDS011;62662;56.788;23.942;2022-10-24T01:30:42;7.85;;;5.70;;
57105;SDS011;62662;56.788;23.942;2022-10-24T01:33:22;10.40;;;6.03;;
57105;SDS011;62662;56.788;23.942;2022-10-24T01:35:59;10.20;;;6.57;;
57105;SDS011;62662;56.788;23.942;2022-10-24T01:38:34;8.38;;;5.85;;
57105;SDS011;62662;56.788;23.942;2022-10-24T01:41:20;13.23;;;7.88;;
57105;SDS011;62662;56.788;23.942;2022-10-24T01:44:10;13.98;;;6.90;;
57105;SDS011;62662;56.788;23.942;2022-10-24T01:46:50;12.75;;;7.00;;
57105;SDS011;62662;56.788;23.942;2022-10-24T01:49:25;10.02;;;6.75;;
57105;SDS011;62662;56.788;23.942;2022-10-24T01:51:55;9.15;;;5.97;;
57105;SDS011;62662;56.788;23.942;2022-10-24T01:54:26;11.80;;;5.93;;
57105;SDS011;62662;56.788;23.942;2022-10-24T01:56:54;10.85;;;7.20;;
57105;SDS011;62662;56.788;23.942;2022-10-24T02:01:54;9.63;;;6.75;;
57105;SDS011;62662;56.788;23.942;2022-10-24T02:04:27;10.02;;;6.90;;
57105;SDS011;62662;56.788;23.942;2022-10-24T02:06:57;12.13;;;6.88;;
57105;SDS011;62662;56.788;23.942;2022-10-24T02:09:27;7.85;;;6.15;;
57105;SDS011;62662;56.788;23.942;2022-10-24T02:11:58;9.63;;;6.53;;
57105;SDS011;62662;56.788;23.942;2022-10-24T02:14:31;8.80;;;6.35;;
57105;SDS011;62662;56.788;23.942;2022-10-24T02:17:01;10.82;;;6.25;;
57105;SDS011;62662;56.788;23.942;2022-10-24T02:19:29;11.07;;;6.05;;
57105;SDS011;62662;56.788;23.942;2022-10-24T02:24:32;10.35;;;6.70;;
57105;SDS011;62662;56.788;23.942;2022-10-24T02:27:19;8.45;;;6.53;;
57105;SDS011;62662;56.788;23.942;2022-10-24T02:32:32;8.70;;;6.07;;
57105;SDS011;62662;56.788;23.942;2022-10-24T02:35:11;9.02;;;5.60;;
57105;SDS011;62662;56.788;23.942;2022-10-24T02:37:41;8.20;;;5.88;;
57105;SDS011;62662;56.788;23.942;2022-10-24T02:40:13;8.30;;;6.18;;
57105;SDS011;62662;56.788;23.942;2022-10-24T02:42:42;12.38;;;6.30;;
57105;SDS011;62662;56.788;23.942;2022-10-24T02:45:10;13.07;;;7.55;;
57105;SDS011;62662;56.788;23.942;2022-10-24T02:47:40;11.55;;;6.93;;
57105;SDS011;62662;56.788;23.942;2022-10-24T02:50:10;12.60;;;8.00;;
57105;SDS011;62662;56.788;23.942;2022-10-24T02:52:38;16.23;;;7.70;;
57105;SDS011;62662;56.788;23.942;2022-10-24T02:55:07;25.63;;;9.77;;
57105;SDS011;62662;56.788;23.942;2022-10-24T02:57:35;12.10;;;7.35;;
57105;SDS011;62662;56.788;23.942;2022-10-24T03:00:02;14.57;;;7.38;;
57105;SDS011;62662;56.788;23.942;2022-10-24T03:02:30;13.63;;;7.95;;
57105;SDS011;62662;56.788;23.942;2022-10-24T03:04:57;17.23;;;9.73;;
57105;SDS011;62662;56.788;23.942;2022-10-24T03:07:24;15.52;;;9.27;;
57105;SDS011;62662;56.788;23.942;2022-10-24T03:09:51;19.80;;;9.98;;
57105;SDS011;62662;56.788;23.942;2022-10-24T03:12:18;17.15;;;10.48;;
57105;SDS011;62662;56.788;23.942;2022-10-24T03:14:45;16.20;;;9.00;;
57105;SDS011;62662;56.788;23.942;2022-10-24T03:17:12;15.60;;;9.43;;
57105;SDS011;62662;56.788;23.942;2022-10-24T03:19:39;17.92;;;9.52;;
57105;SDS011;62662;56.788;23.942;2022-10-24T03:22:06;18.48;;;10.38;;
57105;SDS011;62662;56.788;23.942;2022-10-24T03:24:33;16.85;;;9.75;;
57105;SDS011;62662;56.788;23.942;2022-10-24T03:27:19;25.42;;;14.15;;
57105;SDS011;62662;56.788;23.942;2022-10-24T03:29:46;25.73;;;12.80;;
57105;SDS011;62662;56.788;23.942;2022-10-24T03:32:13;21.85;;;12.13;;
57105;SDS011;62662;56.788;23.942;2022-10-24T03:34:41;28.08;;;14.80;;
57105;SDS011;62662;56.788;23.942;2022-10-24T03:37:08;38.15;;;21.27;;
57105;SDS011;62662;56.788;23.942;2022-10-24T03:39:35;34.05;;;20.15;;
57105;SDS011;62662;56.788;23.942;2022-10-24T03:42:02;36.38;;;17.25;;
57105;SDS011;62662;56.788;23.942;2022-10-24T03:44:29;30.27;;;15.65;;
57105;SDS011;62662;56.788;23.942;2022-10-24T03:46:56;31.08;;;15.55;;
57105;SDS011;62662;56.788;23.942;2022-10-24T03:49:22;27.98;;;14.88;;
57105;SDS011;62662;56.788;23.942;2022-10-24T03:51:49;25.00;;;12.88;;
57105;SDS011;62662;56.788;23.942;2022-10-24T03:54:17;23.92;;;12.23;;
57105;SDS011;62662;56.788;23.942;2022-10-24T03:56:44;20.92;;;12.25;;
57105;SDS011;62662;56.788;23.942;2022-10-24T03:59:13;23.90;;;10.20;;
57105;SDS011;62662;56.788;23.942;2022-10-24T04:01:40;16.63;;;9.50;;
57105;SDS011;62662;56.788;23.942;2022-10-24T04:04:07;16.80;;;9.63;;
57105;SDS011;62662;56.788;23.942;2022-10-24T04:06:34;20.05;;;11.18;;
57105;SDS011;62662;56.788;23.942;2022-10-24T04:09:02;20.02;;;11.55;;
57105;SDS011;62662;56.788;23.942;2022-10-24T04:11:29;18.92;;;11.25;;
57105;SDS011;62662;56.788;23.942;2022-10-24T04:13:56;23.23;;;10.95;;
57105;SDS011;62662;56.788;23.942;2022-10-24T04:16:24;19.88;;;11.15;;
57105;SDS011;62662;56.788;23.942;2022-10-24T04:18:51;17.45;;;9.65;;
57105;SDS011;62662;56.788;23.942;2022-10-24T04:21:18;12.68;;;8.63;;
57105;SDS011;62662;56.788;23.942;2022-10-24T04:23:47;9.57;;;7.75;;
57105;SDS011;62662;56.788;23.942;2022-10-24T04:26:14;12.48;;;8.05;;
57105;SDS011;62662;56.788;23.942;2022-10-24T04:28:42;13.93;;;7.38;;
57105;SDS011;62662;56.788;23.942;2022-10-24T04:31:12;10.75;;;7.38;;
57105;SDS011;62662;56.788;23.942;2022-10-24T04:33:44;10.02;;;7.45;;
57105;SDS011;62662;56.788;23.942;2022-10-24T04:36:11;10.18;;;7.65;;
57105;SDS011;62662;56.788;23.942;2022-10-24T04:38:40;9.38;;;7.50;;
57105;SDS011;62662;56.788;23.942;2022-10-24T04:41:07;16.17;;;8.30;;
57105;SDS011;62662;56.788;23.942;2022-10-24T04:43:37;11.30;;;7.70;;
57105;SDS011;62662;56.788;23.942;2022-10-24T04:46:05;15.73;;;7.85;;
57105;SDS011;62662;56.788;23.942;2022-10-24T04:48:32;10.18;;;7.45;;
57105;SDS011;62662;56.788;23.942;2022-10-24T04:51:00;15.10;;;7.45;;
57105;SDS011;62662;56.788;23.942;2022-10-24T04:53:28;11.43;;;7.72;;
57105;SDS011;62662;56.788;23.942;2022-10-24T04:55:55;13.40;;;8.40;;
57105;SDS011;62662;56.788;23.942;2022-10-24T04:58:23;12.50;;;8.10;;
57105;SDS011;62662;56.788;23.942;2022-10-24T05:00:52;25.17;;;16.08;;
57105;SDS011;62662;56.788;23.942;2022-10-24T05:03:19;16.08;;;10.90;;
57105;SDS011;62662;56.788;23.942;2022-10-24T05:05:48;19.77;;;11.63;;
57105;SDS011;62662;56.788;23.942;2022-10-24T05:08:15;16.42;;;10.27;;
57105;SDS011;62662;56.788;23.942;2022-10-24T05:10:43;15.38;;;9.90;;
57105;SDS011;62662;56.788;23.942;2022-10-24T05:13:10;16.27;;;8.93;;
57105;SDS011;62662;56.788;23.942;2022-10-24T05:15:38;15.63;;;9.70;;
57105;SDS011;62662;56.788;23.942;2022-10-24T05:18:05;46.53;;;24.33;;
57105;SDS011;62662;56.788;23.942;2022-10-24T05:20:32;38.90;;;21.00;;
57105;SDS011;62662;56.788;23.942;2022-10-24T05:22:59;32.20;;;18.73;;
57105;SDS011;62662;56.788;23.942;2022-10-24T05:25:26;18.17;;;9.35;;
57105;SDS011;62662;56.788;23.942;2022-10-24T05:27:54;20.00;;;11.95;;
57105;SDS011;62662;56.788;23.942;2022-10-24T05:30:21;18.33;;;9.77;;
57105;SDS011;62662;56.788;23.942;2022-10-24T05:32:48;27.00;;;14.25;;
57105;SDS011;62662;56.788;23.942;2022-10-24T05:35:15;36.38;;;19.67;;
57105;SDS011;62662;56.788;23.942;2022-10-24T05:37:42;34.45;;;17.65;;
57105;SDS011;62662;56.788;23.942;2022-10-24T05:40:10;20.52;;;12.15;;
57105;SDS011;62662;56.788;23.942;2022-10-24T05:42:37;15.70;;;10.52;;
57105;SDS011;62662;56.788;23.942;2022-10-24T05:45:06;15.77;;;8.75;;
57105;SDS011;62662;56.788;23.942;2022-10-24T05:47:34;14.07;;;7.70;;
57105;SDS011;62662;56.788;23.942;2022-10-24T05:50:03;12.93;;;8.32;;
57105;SDS011;62662;56.788;23.942;2022-10-24T05:52:31;16.63;;;9.82;;
57105;SDS011;62662;56.788;23.942;2022-10-24T05:55:04;20.02;;;10.32;;
57105;SDS011;62662;56.788;23.942;2022-10-24T05:57:34;14.07;;;7.93;;
57105;SDS011;62662;56.788;23.942;2022-10-24T06:00:03;15.27;;;7.10;;
57105;SDS011;62662;56.788;23.942;2022-10-24T06:02:32;8.40;;;5.80;;
57105;SDS011;62662;56.788;23.942;2022-10-24T06:05:01;6.70;;;5.47;;
57105;SDS011;62662;56.788;23.942;2022-10-24T06:07:28;8.32;;;7.05;;
57105;SDS011;62662;56.788;23.942;2022-10-24T06:09:56;10.52;;;6.53;;
57105;SDS011;62662;56.788;23.942;2022-10-24T06:12:24;9.68;;;6.25;;
57105;SDS011;62662;56.788;23.942;2022-10-24T06:14:54;10.52;;;6.38;;
57105;SDS011;62662;56.788;23.942;2022-10-24T06:17:22;9.13;;;5.53;;
57105;SDS011;62662;56.788;23.942;2022-10-24T06:19:49;7.20;;;6.05;;
57105;SDS011;62662;56.788;23.942;2022-10-24T06:22:17;10.13;;;5.80;;
57105;SDS011;62662;56.788;23.942;2022-10-24T06:24:44;13.95;;;7.90;;
57105;SDS011;62662;56.788;23.942;2022-10-24T06:27:12;12.27;;;6.25;;
57105;SDS011;62662;56.788;23.942;2022-10-24T06:29:39;8.27;;;5.90;;
57105;SDS011;62662;56.788;23.942;2022-10-24T06:32:06;8.93;;;6.50;;
57105;SDS011;62662;56.788;23.942;2022-10-24T06:34:33;7.45;;;6.13;;
57105;SDS011;62662;56.788;23.942;2022-10-24T06:37:01;9.90;;;7.05;;
57105;SDS011;62662;56.788;23.942;2022-10-24T06:39:29;11.07;;;7.63;;
57105;SDS011;62662;56.788;23.942;2022-10-24T06:41:56;9.70;;;7.70;;
57105;SDS011;62662;56.788;23.942;2022-10-24T06:44:23;12.35;;;9.57;;
57105;SDS011;62662;56.788;23.942;2022-10-24T06:46:51;11.52;;;8.95;;
57105;SDS011;62662;56.788;23.942;2022-10-24T06:49:18;13.00;;;10.57;;
57105;SDS011;62662;56.788;23.942;2022-10-24T06:51:45;14.27;;;10.15;;
57105;SDS011;62662;56.788;23.942;2022-10-24T06:54:13;11.13;;;8.07;;
57105;SDS011;62662;56.788;23.942;2022-10-24T06:56:40;9.20;;;7.90;;
57105;SDS011;62662;56.788;23.942;2022-10-24T06:59:09;13.15;;;9.10;;
57105;SDS011;62662;56.788;23.942;2022-10-24T07:01:37;11.95;;;8.00;;
57105;SDS011;62662;56.788;23.942;2022-10-24T07:04:04;11.38;;;6.43;;
57105;SDS011;62662;56.788;23.942;2022-10-24T07:06:31;11.93;;;7.10;;
57105;SDS011;62662;56.788;23.942;2022-10-24T07:08:59;8.88;;;6.50;;
57105;SDS011;62662;56.788;23.942;2022-10-24T07:11:28;7.90;;;6.45;;
57105;SDS011;62662;56.788;23.942;2022-10-24T07:13:56;10.10;;;6.57;;
57105;SDS011;62662;56.788;23.942;2022-10-24T07:16:27;10.13;;;7.25;;
57105;SDS011;62662;56.788;23.942;2022-10-24T07:18:55;13.27;;;8.38;;
57105;SDS011;62662;56.788;23.942;2022-10-24T07:21:24;8.70;;;6.60;;
57105;SDS011;62662;56.788;23.942;2022-10-24T07:23:53;12.13;;;6.88;;
57105;SDS011;62662;56.788;23.942;2022-10-24T07:26:22;7.32;;;6.25;;
57105;SDS011;62662;56.788;23.942;2022-10-24T07:28:52;10.10;;;6.28;;
57105;SDS011;62662;56.788;23.942;2022-10-24T07:31:24;8.57;;;6.10;;
57105;SDS011;62662;56.788;23.942;2022-10-24T07:33:54;7.88;;;6.03;;
57105;SDS011;62662;56.788;23.942;2022-10-24T07:36:22;9.20;;;6.32;;
57105;SDS011;62662;56.788;23.942;2022-10-24T07:38:52;8.57;;;6.65;;
57105;SDS011;62662;56.788;23.942;2022-10-24T07:41:27;9.70;;;6.65;;
57105;SDS011;62662;56.788;23.942;2022-10-24T07:43:59;10.10;;;5.93;;
57105;SDS011;62662;56.788;23.942;2022-10-24T07:46:31;9.77;;;6.53;;
57105;SDS011;62662;56.788;23.942;2022-10-24T07:48:58;7.70;;;6.00;;
57105;SDS011;62662;56.788;23.942;2022-10-24T07:51:26;11.35;;;6.68;;
57105;SDS011;62662;56.788;23.942;2022-10-24T07:53:56;7.95;;;5.97;;
57105;SDS011;62662;56.788;23.942;2022-10-24T07:56:25;8.07;;;6.30;;
57105;SDS011;62662;56.788;23.942;2022-10-24T07:58:52;7.28;;;6.35;;
57105;SDS011;62662;56.788;23.942;2022-10-24T08:01:25;9.40;;;5.63;;
57105;SDS011;62662;56.788;23.942;2022-10-24T08:03:54;7.55;;;6.25;;
57105;SDS011;62662;56.788;23.942;2022-10-24T08:06:28;10.95;;;6.35;;
57105;SDS011;62662;56.788;23.942;2022-10-24T08:08:56;6.78;;;5.50;;
57105;SDS011;62662;56.788;23.942;2022-10-24T08:11:25;8.27;;;6.32;;
57105;SDS011;62662;56.788;23.942;2022-10-24T08:13:53;14.13;;;5.70;;
57105;SDS011;62662;56.788;23.942;2022-10-24T08:16:26;11.23;;;6.28;;
57105;SDS011;62662;56.788;23.942;2022-10-24T08:18:55;9.05;;;5.97;;
57105;SDS011;62662;56.788;23.942;2022-10-24T08:21:24;10.63;;;6.88;;
57105;SDS011;62662;56.788;23.942;2022-10-24T08:23:53;8.95;;;5.75;;
57105;SDS011;62662;56.788;23.942;2022-10-24T08:26:22;10.48;;;5.97;;
57105;SDS011;62662;56.788;23.942;2022-10-24T08:28:54;7.88;;;5.60;;
57105;SDS011;62662;56.788;23.942;2022-10-24T08:31:21;11.25;;;6.28;;
57105;SDS011;62662;56.788;23.942;2022-10-24T08:33:50;11.35;;;6.63;;
57105;SDS011;62662;56.788;23.942;2022-10-24T08:36:25;8.60;;;6.60;;
57105;SDS011;62662;56.788;23.942;2022-10-24T08:38:56;8.63;;;5.97;;
57105;SDS011;62662;56.788;23.942;2022-10-24T08:41:25;8.15;;;6.28;;
57105;SDS011;62662;56.788;23.942;2022-10-24T08:43:53;11.20;;;6.53;;
57105;SDS011;62662;56.788;23.942;2022-10-24T08:49:07;9.63;;;7.47;;
57105;SDS011;62662;56.788;23.942;2022-10-24T08:51:40;13.18;;;7.15;;
57105;SDS011;62662;56.788;23.942;2022-10-24T08:54:19;12.50;;;7.32;;
57105;SDS011;62662;56.788;23.942;2022-10-24T08:56:51;7.43;;;6.38;;
57105;SDS011;62662;56.788;23.942;2022-10-24T08:59:24;10.50;;;6.63;;
57105;SDS011;62662;56.788;23.942;2022-10-24T09:04:33;11.05;;;6.68;;
57105;SDS011;62662;56.788;23.942;2022-10-24T09:07:06;10.53;;;7.20;;
57105;SDS011;62662;56.788;23.942;2022-10-24T09:09:44;11.82;;;6.53;;
57105;SDS011;62662;56.788;23.942;2022-10-24T09:12:15;10.82;;;7.07;;
57105;SDS011;62662;56.788;23.942;2022-10-24T09:14:44;10.38;;;6.63;;
57105;SDS011;62662;56.788;23.942;2022-10-24T09:17:22;9.82;;;7.03;;
57105;SDS011;62662;56.788;23.942;2022-10-24T09:19:59;9.35;;;6.97;;
57105;SDS011;62662;56.788;23.942;2022-10-24T09:22:31;9.55;;;6.68;;
57105;SDS011;62662;56.788;23.942;2022-10-24T09:25:04;12.13;;;7.85;;
57105;SDS011;62662;56.788;23.942;2022-10-24T09:27:40;11.60;;;7.80;;
57105;SDS011;62662;56.788;23.942;2022-10-24T09:30:17;9.13;;;7.10;;
57105;SDS011;62662;56.788;23.942;2022-10-24T09:32:46;13.00;;;7.43;;
57105;SDS011;62662;56.788;23.942;2022-10-24T09:35:19;10.02;;;7.47;;
57105;SDS011;62662;56.788;23.942;2022-10-24T09:37:53;10.77;;;6.82;;
57105;SDS011;62662;56.788;23.942;2022-10-24T09:40:47;10.27;;;7.20;;
57105;SDS011;62662;56.788;23.942;2022-10-24T09:45:49;10.43;;;6.55;;
57105;SDS011;62662;56.788;23.942;2022-10-24T09:51:01;9.30;;;6.30;;
57105;SDS011;62662;56.788;23.942;2022-10-24T09:53:31;9.10;;;6.53;;
57105;SDS011;62662;56.788;23.942;2022-10-24T09:56:14;17.30;;;9.23;;
57105;SDS011;62662;56.788;23.942;2022-10-24T09:58:41;11.95;;;7.88;;
57105;SDS011;62662;56.788;23.942;2022-10-24T10:03:42;12.75;;;6.50;;
57105;SDS011;62662;56.788;23.942;2022-10-24T10:06:27;11.88;;;6.78;;
57105;SDS011;62662;56.788;23.942;2022-10-24T10:08:54;13.82;;;6.85;;
57105;SDS011;62662;56.788;23.942;2022-10-24T10:11:24;9.75;;;7.10;;
57105;SDS011;62662;56.788;23.942;2022-10-24T10:13:52;10.05;;;6.90;;
57105;SDS011;62662;56.788;23.942;2022-10-24T10:16:23;9.50;;;7.40;;
57105;SDS011;62662;56.788;23.942;2022-10-24T10:19:01;9.23;;;7.00;;
57105;SDS011;62662;56.788;23.942;2022-10-24T10:21:51;11.07;;;7.40;;
57105;SDS011;62662;56.788;23.942;2022-10-24T10:24:24;11.82;;;7.53;;
57105;SDS011;62662;56.788;23.942;2022-10-24T10:26:51;11.65;;;7.30;;
57105;SDS011;62662;56.788;23.942;2022-10-24T10:29:22;11.05;;;7.47;;
57105;SDS011;62662;56.788;23.942;2022-10-24T10:34:40;14.88;;;8.13;;
57105;SDS011;62662;56.788;23.942;2022-10-24T10:37:19;13.13;;;8.05;;
57105;SDS011;62662;56.788;23.942;2022-10-24T10:40:06;11.05;;;8.50;;
57105;SDS011;62662;56.788;23.942;2022-10-24T10:45:38;13.30;;;7.97;;
57105;SDS011;62662;56.788;23.942;2022-10-24T10:51:32;10.45;;;8.20;;
57105;SDS011;62662;56.788;23.942;2022-10-24T10:57:33;12.52;;;8.80;;
57105;SDS011;62662;56.788;23.942;2022-10-24T11:00:42;10.98;;;8.30;;
57105;SDS011;62662;56.788;23.942;2022-10-24T11:03:31;14.45;;;8.57;;
57105;SDS011;62662;56.788;23.942;2022-10-24T11:09:28;13.05;;;8.25;;
57105;SDS011;62662;56.788;23.942;2022-10-24T11:12:18;14.10;;;8.57;;
57105;SDS011;62662;56.788;23.942;2022-10-24T11:14:55;14.65;;;9.38;;
57105;SDS011;62662;56.788;23.942;2022-10-24T11:17:36;16.27;;;10.27;;
57105;SDS011;62662;56.788;23.942;2022-10-24T11:22:51;15.05;;;9.20;;
57105;SDS011;62662;56.788;23.942;2022-10-24T11:28:55;11.48;;;8.68;;
57105;SDS011;62662;56.788;23.942;2022-10-24T11:31:49;15.15;;;9.25;;
57105;SDS011;62662;56.788;23.942;2022-10-24T11:34:24;13.20;;;8.70;;
57105;SDS011;62662;56.788;23.942;2022-10-24T11:37:05;13.57;;;9.82;;
57105;SDS011;62662;56.788;23.942;2022-10-24T11:39:39;14.63;;;9.38;;
57105;SDS011;62662;56.788;23.942;2022-10-24T11:42:22;16.05;;;9.80;;
57105;SDS011;62662;56.788;23.942;2022-10-24T11:50:13;15.43;;;10.52;;
57105;SDS011;62662;56.788;23.942;2022-10-24T11:53:12;16.25;;;12.07;;
57105;SDS011;62662;56.788;23.942;2022-10-24T11:55:50;12.98;;;9.13;;
57105;SDS011;62662;56.788;23.942;2022-10-24T11:58:22;12.38;;;9.27;;
57105;SDS011;62662;56.788;23.942;2022-10-24T12:20:19;18.13;;;9.77;;
57105;SDS011;62662;56.788;23.942;2022-10-24T12:22:50;14.85;;;10.85;;
57105;SDS011;62662;56.788;23.942;2022-10-24T12:27:58;16.15;;;11.50;;
57105;SDS011;62662;56.788;23.942;2022-10-24T12:30:32;15.45;;;10.68;;
57105;SDS011;62662;56.788;23.942;2022-10-24T12:35:52;17.40;;;10.23;;
57105;SDS011;62662;56.788;23.942;2022-10-24T12:40:53;16.70;;;9.23;;
57105;SDS011;62662;56.788;23.942;2022-10-24T12:43:32;14.38;;;9.57;;
57105;SDS011;62662;56.788;23.942;2022-10-24T12:51:26;14.75;;;10.10;;
57105;SDS011;62662;56.788;23.942;2022-10-24T13:05:00;13.43;;;8.80;;
57105;SDS011;62662;56.788;23.942;2022-10-24T13:07:39;14.65;;;8.55;;
57105;SDS011;62662;56.788;23.942;2022-10-24T13:13:02;12.75;;;8.95;;
57105;SDS011;62662;56.788;23.942;2022-10-24T13:21:42;13.63;;;8.65;;
57105;SDS011;62662;56.788;23.942;2022-10-24T13:26:43;17.73;;;9.68;;
57105;SDS011;62662;56.788;23.942;2022-10-24T13:31:51;11.57;;;9.35;;
57105;SDS011;62662;56.788;23.942;2022-10-24T13:48:19;15.90;;;8.90;;
57105;SDS011;62662;56.788;23.942;2022-10-24T13:50:50;12.90;;;8.95;;
57105;SDS011;62662;56.788;23.942;2022-10-24T13:53:31;13.60;;;9.18;;
57105;SDS011;62662;56.788;23.942;2022-10-24T13:56:08;13.23;;;8.95;;
57105;SDS011;62662;56.788;23.942;2022-10-24T13:58:38;14.32;;;8.52;;
57105;SDS011;62662;56.788;23.942;2022-10-24T14:01:14;13.40;;;8.48;;
57105;SDS011;62662;56.788;23.942;2022-10-24T14:03:51;13.07;;;8.60;;
57105;SDS011;62662;56.788;23.942;2022-10-24T14:06:26;15.60;;;9.50;;
57105;SDS011;62662;56.788;23.942;2022-10-24T14:09:00;12.88;;;9.98;;
57105;SDS011;62662;56.788;23.942;2022-10-24T14:11:38;19.33;;;11.25;;
57105;SDS011;62662;56.788;23.942;2022-10-24T14:20:35;14.27;;;10.27;;
57105;SDS011;62662;56.788;23.942;2022-10-24T14:22:37;17.23;;;10.70;;
57105;SDS011;62662;56.788;23.942;2022-10-24T14:27:57;17.08;;;11.50;;
57105;SDS011;62662;56.788;23.942;2022-10-24T14:30:27;21.50;;;13.43;;
57105;SDS011;62662;56.788;23.942;2022-10-24T14:35:39;19.95;;;12.65;;
57105;SDS011;62662;56.788;23.942;2022-10-24T14:38:12;18.13;;;10.77;;
57105;SDS011;62662;56.788;23.942;2022-10-24T14:40:42;17.42;;;10.90;;
57105;SDS011;62662;56.788;23.942;2022-10-24T14:43:26;21.50;;;11.57;;
57105;SDS011;62662;56.788;23.942;2022-10-24T14:46:06;25.92;;;12.98;;
57105;SDS011;62662;56.788;23.942;2022-10-24T14:48:37;23.58;;;14.05;;
57105;SDS011;62662;56.788;23.942;2022-10-24T14:53:52;39.65;;;14.82;;
57105;SDS011;62662;56.788;23.942;2022-10-24T14:58:53;35.05;;;16.02;;
57105;SDS011;62662;56.788;23.942;2022-10-24T15:01:24;34.65;;;16.65;;
57105;SDS011;62662;56.788;23.942;2022-10-24T15:04:02;36.90;;;14.82;;
57105;SDS011;62662;56.788;23.942;2022-10-24T15:06:37;33.67;;;15.93;;
57105;SDS011;62662;56.788;23.942;2022-10-24T15:16:58;21.83;;;12.50;;
57105;SDS011;62662;56.788;23.942;2022-10-24T15:19:29;19.48;;;10.60;;
57105;SDS011;62662;56.788;23.942;2022-10-24T15:22:01;20.65;;;10.70;;
57105;SDS011;62662;56.788;23.942;2022-10-24T15:24:29;17.15;;;10.10;;
57105;SDS011;62662;56.788;23.942;2022-10-24T15:27:10;15.07;;;8.60;;
57105;SDS011;62662;56.788;23.942;2022-10-24T15:29:39;12.93;;;8.05;;
57105;SDS011;62662;56.788;23.942;2022-10-24T15:32:08;13.88;;;8.25;;
57105;SDS011;62662;56.788;23.942;2022-10-24T15:34:35;10.32;;;7.85;;
57105;SDS011;62662;56.788;23.942;2022-10-24T15:37:02;9.32;;;7.57;;
57105;SDS011;62662;56.788;23.942;2022-10-24T15:39:31;12.45;;;7.72;;
57105;SDS011;62662;56.788;23.942;2022-10-24T15:41:59;16.00;;;8.13;;
57105;SDS011;62662;56.788;23.942;2022-10-24T15:44:27;10.88;;;7.43;;
57105;SDS011;62662;56.788;23.942;2022-10-24T15:46:57;11.57;;;8.05;;
57105;SDS011;62662;56.788;23.942;2022-10-24T15:49:25;12.35;;;8.35;;
57105;SDS011;62662;56.788;23.942;2022-10-24T15:51:54;15.35;;;7.63;;
57105;SDS011;62662;56.788;23.942;2022-10-24T15:54:26;13.07;;;8.30;;
57105;SDS011;62662;56.788;23.942;2022-10-24T15:56:54;14.20;;;8.90;;
57105;SDS011;62662;56.788;23.942;2022-10-24T15:59:23;13.20;;;10.20;;
57105;SDS011;62662;56.788;23.942;2022-10-24T16:01:53;15.95;;;10.95;;
57105;SDS011;62662;56.788;23.942;2022-10-24T16:04:23;15.95;;;12.15;;
57105;SDS011;62662;56.788;23.942;2022-10-24T16:06:50;12.82;;;9.15;;
57105;SDS011;62662;56.788;23.942;2022-10-24T16:09:19;15.40;;;11.00;;
57105;SDS011;62662;56.788;23.942;2022-10-24T16:11:52;15.82;;;9.70;;
57105;SDS011;62662;56.788;23.942;2022-10-24T16:14:20;15.07;;;9.80;;
57105;SDS011;62662;56.788;23.942;2022-10-24T16:16:48;13.38;;;8.98;;
57105;SDS011;62662;56.788;23.942;2022-10-24T16:19:15;12.77;;;8.57;;
57105;SDS011;62662;56.788;23.942;2022-10-24T16:21:42;16.65;;;8.75;;
57105;SDS011;62662;56.788;23.942;2022-10-24T16:24:10;13.65;;;8.52;;
57105;SDS011;62662;56.788;23.942;2022-10-24T16:26:39;11.02;;;7.32;;
57105;SDS011;62662;56.788;23.942;2022-10-24T16:29:08;14.65;;;8.20;;
57105;SDS011;62662;56.788;23.942;2022-10-24T16:31:36;10.38;;;7.10;;
57105;SDS011;62662;56.788;23.942;2022-10-24T16:34:03;11.15;;;8.27;;
57105;SDS011;62662;56.788;23.942;2022-10-24T16:36:33;12.85;;;9.38;;
57105;SDS011;62662;56.788;23.942;2022-10-24T16:39:00;14.30;;;9.48;;
57105;SDS011;62662;56.788;23.942;2022-10-24T16:41:28;12.98;;;8.90;;
57105;SDS011;62662;56.788;23.942;2022-10-24T16:43:56;16.58;;;8.43;;
57105;SDS011;62662;56.788;23.942;2022-10-24T16:46:25;12.40;;;8.57;;
57105;SDS011;62662;56.788;23.942;2022-10-24T16:48:53;13.95;;;8.05;;
57105;SDS011;62662;56.788;23.942;2022-10-24T16:51:22;12.98;;;8.07;;
57105;SDS011;62662;56.788;23.942;2022-10-24T16:53:58;9.77;;;7.00;;
57105;SDS011;62662;56.788;23.942;2022-10-24T16:56:29;14.27;;;8.23;;
57105;SDS011;62662;56.788;23.942;2022-10-24T16:59:01;11.82;;;7.25;;
57105;SDS011;62662;56.788;23.942;2022-10-24T17:01:29;11.80;;;8.10;;
57105;SDS011;62662;56.788;23.942;2022-10-24T17:04:01;9.05;;;6.70;;
57105;SDS011;62662;56.788;23.942;2022-10-24T17:06:30;13.57;;;6.68;;
57105;SDS011;62662;56.788;23.942;2022-10-24T17:08:57;10.95;;;7.22;;
57105;SDS011;62662;56.788;23.942;2022-10-24T17:11:25;16.48;;;8.25;;
57105;SDS011;62662;56.788;23.942;2022-10-24T17:14:11;10.52;;;7.18;;
57105;SDS011;62662;56.788;23.942;2022-10-24T17:16:42;11.20;;;6.88;;
57105;SDS011;62662;56.788;23.942;2022-10-24T17:19:09;11.63;;;7.18;;
57105;SDS011;62662;56.788;23.942;2022-10-24T17:21:42;10.35;;;7.18;;
57105;SDS011;62662;56.788;23.942;2022-10-24T17:24:26;11.40;;;7.30;;
57105;SDS011;62662;56.788;23.942;2022-10-24T17:26:54;12.75;;;6.85;;
57105;SDS011;62662;56.788;23.942;2022-10-24T17:29:29;10.20;;;7.60;;